Christiansted, Virgin Islands
Current Conditions -  °F | °C
As of 11:53 AM on Thursday 30 Oct 2014 (Local Time) from TISX Reporting Station
Clear Clear  
Wind Chill: 86°   Ceiling: Unl
Heat Index: 96°   Visibility: 10mi
Dew Point: 76°   Wind: 12mph
Humidity: 72%   Direction: 190°S
Pressure: 29.86"   Gusts: NA
Location:  17.74°N, 64.7°W
Report Text: TISX 301553Z 19010KT 10SM CLR 30/24 A2986 RMK AO2 SLP110 T03000244 $
Loading
Personal Weather Stations






























Interactive Weather Map
Tropical Storm Tracking
New forecast layout! Learn more

10-Day Weather Forecast

Advertisements
Track Severe Weather on mobile